sensor_id;sensor_type;location;lat;lon;timestamp;pressure;altitude;pressure_sealevel;temperature;humidity
15260;BME280;34462;51.368;12.364;2023-03-18T00:01:26;19856.53;;;-141.84;48.68
15260;BME280;34462;51.368;12.364;2023-03-18T00:03:55;19834.16;;;-141.84;48.76
15260;BME280;34462;51.368;12.364;2023-03-18T00:06:23;19821.97;;;-141.84;49.17
15260;BME280;34462;51.368;12.364;2023-03-18T00:08:52;19834.16;;;-141.84;48.74
15260;BME280;34462;51.368;12.364;2023-03-18T00:11:22;19838.22;;;-141.84;48.57
15260;BME280;34462;51.368;12.364;2023-03-18T00:13:50;19852.44;;;-141.84;48.93
15260;BME280;34462;51.368;12.364;2023-03-18T00:16:18;19836.19;;;-141.84;48.92
15260;BME280;34462;51.368;12.364;2023-03-18T00:18:47;19824.00;;;-141.84;49.49
15260;BME280;34462;51.368;12.364;2023-03-18T00:21:17;19832.13;;;-141.84;49.00
15260;BME280;34462;51.368;12.364;2023-03-18T00:23:45;19821.97;;;-141.84;49.25
15260;BME280;34462;51.368;12.364;2023-03-18T00:26:15;19850.41;;;-141.84;48.92
15260;BME280;34462;51.368;12.364;2023-03-18T00:28:44;19852.44;;;-141.84;48.98
15260;BME280;34462;51.368;12.364;2023-03-18T00:31:13;19817.91;;;-141.84;49.16
15260;BME280;34462;51.368;12.364;2023-03-18T00:33:42;19895.13;;;-141.84;49.01
15260;BME280;34462;51.368;12.364;2023-03-18T00:36:12;19824.00;;;-141.84;49.05
15260;BME280;34462;51.368;12.364;2023-03-18T00:38:43;19852.44;;;-141.84;49.33
15260;BME280;34462;51.368;12.364;2023-03-18T00:41:13;19846.34;;;-141.84;49.09
15260;BME280;34462;51.368;12.364;2023-03-18T00:43:47;19813.84;;;-141.84;49.07
15260;BME280;34462;51.368;12.364;2023-03-18T00:46:21;19819.94;;;-141.84;48.93
15260;BME280;34462;51.368;12.364;2023-03-18T00:48:52;19858.56;;;-141.84;49.02
15260;BME280;34462;51.368;12.364;2023-03-18T00:51:23;19815.88;;;-141.84;49.34
15260;BME280;34462;51.368;12.364;2023-03-18T00:53:55;19824.00;;;-141.84;49.12
15260;BME280;34462;51.368;12.364;2023-03-18T00:56:26;19795.53;;;-141.84;49.38
15260;BME280;34462;51.368;12.364;2023-03-18T00:58:57;19824.00;;;-141.84;49.71
15260;BME280;34462;51.368;12.364;2023-03-18T01:01:27;19817.91;;;-141.84;49.14
15260;BME280;34462;51.368;12.364;2023-03-18T01:03:55;19842.28;;;-141.84;49.88
15260;BME280;34462;51.368;12.364;2023-03-18T01:06:27;19852.44;;;-141.84;49.45
15260;BME280;34462;51.368;12.364;2023-03-18T01:08:56;19880.91;;;-141.84;48.78
15260;BME280;34462;51.368;12.364;2023-03-18T01:11:26;19838.22;;;-141.84;49.57
15260;BME280;34462;51.368;12.364;2023-03-18T01:13:56;19836.19;;;-141.84;48.58
15260;BME280;34462;51.368;12.364;2023-03-18T01:16:25;19850.41;;;-141.84;49.31
15260;BME280;34462;51.368;12.364;2023-03-18T01:18:54;19815.88;;;-141.84;49.23
15260;BME280;34462;51.368;12.364;2023-03-18T01:21:22;19882.94;;;-141.84;48.89
15260;BME280;34462;51.368;12.364;2023-03-18T01:23:51;19821.97;;;-141.84;49.18
15260;BME280;34462;51.368;12.364;2023-03-18T01:26:20;19862.63;;;-141.84;49.28
15260;BME280;34462;51.368;12.364;2023-03-18T01:28:49;19846.34;;;-141.84;49.19
15260;BME280;34462;51.368;12.364;2023-03-18T01:31:18;19840.25;;;-141.84;49.24
15260;BME280;34462;51.368;12.364;2023-03-18T01:33:47;19862.63;;;-141.84;49.03
15260;BME280;34462;51.368;12.364;2023-03-18T01:36:15;19850.41;;;-141.84;49.22
15260;BME280;34462;51.368;12.364;2023-03-18T01:38:44;19850.41;;;-141.84;49.15
15260;BME280;34462;51.368;12.364;2023-03-18T01:41:13;19834.16;;;-141.84;49.50
15260;BME280;34462;51.368;12.364;2023-03-18T01:43:42;19801.66;;;-141.84;49.42
15260;BME280;34462;51.368;12.364;2023-03-18T01:46:35;19868.72;;;-141.84;49.03
15260;BME280;34462;51.368;12.364;2023-03-18T01:49:09;19858.56;;;-141.84;48.95
15260;BME280;34462;51.368;12.364;2023-03-18T01:51:41;19895.13;;;-141.84;49.66
15260;BME280;34462;51.368;12.364;2023-03-18T01:54:14;19785.38;;;-141.84;50.14
15260;BME280;34462;51.368;12.364;2023-03-18T01:56:46;19809.78;;;-141.84;50.05
15260;BME280;34462;51.368;12.364;2023-03-18T01:59:18;19834.16;;;-141.84;49.77
15260;BME280;34462;51.368;12.364;2023-03-18T02:01:53;19817.91;;;-141.84;50.19
15260;BME280;34462;51.368;12.364;2023-03-18T02:04:29;19797.59;;;-141.84;49.70
15260;BME280;34462;51.368;12.364;2023-03-18T02:06:59;19834.16;;;-141.84;49.64
15260;BME280;34462;51.368;12.364;2023-03-18T02:09:28;19813.84;;;-141.84;50.38
15260;BME280;34462;51.368;12.364;2023-03-18T02:11:58;19832.13;;;-141.84;49.86
15260;BME280;34462;51.368;12.364;2023-03-18T02:14:28;19795.53;;;-141.84;50.36
15260;BME280;34462;51.368;12.364;2023-03-18T02:17:10;19779.28;;;-141.84;50.22
15260;BME280;34462;51.368;12.364;2023-03-18T02:19:53;19801.66;;;-141.84;50.95
15260;BME280;34462;51.368;12.364;2023-03-18T02:22:29;19807.75;;;-141.84;50.68
15260;BME280;34462;51.368;12.364;2023-03-18T02:25:18;19815.88;;;-141.84;50.49
15260;BME280;34462;51.368;12.364;2023-03-18T02:27:55;19809.78;;;-141.84;50.78
15260;BME280;34462;51.368;12.364;2023-03-18T02:30:27;19815.88;;;-141.84;49.91
15260;BME280;34462;51.368;12.364;2023-03-18T02:32:59;19797.59;;;-141.84;50.09
15260;BME280;34462;51.368;12.364;2023-03-18T02:35:30;19819.94;;;-141.84;50.67
15260;BME280;34462;51.368;12.364;2023-03-18T02:37:59;19781.31;;;-141.84;51.09
15260;BME280;34462;51.368;12.364;2023-03-18T02:40:31;19789.44;;;-141.84;51.02
15260;BME280;34462;51.368;12.364;2023-03-18T02:43:18;19793.50;;;-141.84;50.91
15260;BME280;34462;51.368;12.364;2023-03-18T02:46:19;19801.66;;;-141.84;50.59
15260;BME280;34462;51.368;12.364;2023-03-18T02:48:52;19809.78;;;-141.84;50.83
15260;BME280;34462;51.368;12.364;2023-03-18T02:51:20;19779.28;;;-141.84;50.85
15260;BME280;34462;51.368;12.364;2023-03-18T02:53:49;19763.03;;;-141.84;51.61
15260;BME280;34462;51.368;12.364;2023-03-18T02:56:18;19813.84;;;-141.84;50.79
15260;BME280;34462;51.368;12.364;2023-03-18T02:58:47;19781.31;;;-141.84;51.35
15260;BME280;34462;51.368;12.364;2023-03-18T03:01:18;19779.28;;;-141.84;51.42
15260;BME280;34462;51.368;12.364;2023-03-18T03:03:47;19773.19;;;-141.84;51.78
15260;BME280;34462;51.368;12.364;2023-03-18T03:06:16;19756.94;;;-141.84;52.06
15260;BME280;34462;51.368;12.364;2023-03-18T03:08:44;19767.09;;;-141.84;52.40
15260;BME280;34462;51.368;12.364;2023-03-18T03:11:13;19793.50;;;-141.84;51.81
15260;BME280;34462;51.368;12.364;2023-03-18T03:13:43;19736.59;;;-141.84;52.27
15260;BME280;34462;51.368;12.364;2023-03-18T03:16:14;19720.34;;;-141.84;52.56
15260;BME280;34462;51.368;12.364;2023-03-18T03:18:43;19730.50;;;-141.84;52.83
15260;BME280;34462;51.368;12.364;2023-03-18T03:21:13;19700.03;;;-141.84;53.14
15260;BME280;34462;51.368;12.364;2023-03-18T03:23:43;19714.25;;;-141.84;52.88
15260;BME280;34462;51.368;12.364;2023-03-18T03:26:12;19724.41;;;-141.84;53.14
15260;BME280;34462;51.368;12.364;2023-03-18T03:28:40;19700.03;;;-141.84;53.63
15260;BME280;34462;51.368;12.364;2023-03-18T03:31:09;19710.19;;;-141.84;53.93
15260;BME280;34462;51.368;12.364;2023-03-18T03:33:40;19736.59;;;-141.84;53.28
15260;BME280;34462;51.368;12.364;2023-03-18T03:36:12;19720.34;;;-141.84;53.32
15260;BME280;34462;51.368;12.364;2023-03-18T03:38:40;19736.59;;;-141.84;52.52
15260;BME280;34462;51.368;12.364;2023-03-18T03:41:11;19734.56;;;-141.84;53.03
15260;BME280;34462;51.368;12.364;2023-03-18T03:43:42;19714.25;;;-141.84;53.00
15260;BME280;34462;51.368;12.364;2023-03-18T03:46:11;19738.66;;;-141.84;52.02
15260;BME280;34462;51.368;12.364;2023-03-18T03:48:41;19744.75;;;-141.84;52.92
15260;BME280;34462;51.368;12.364;2023-03-18T03:51:09;19748.81;;;-141.84;52.41
15260;BME280;34462;51.368;12.364;2023-03-18T03:53:37;19752.88;;;-141.84;52.56
15260;BME280;34462;51.368;12.364;2023-03-18T03:56:06;19742.72;;;-141.84;52.80
15260;BME280;34462;51.368;12.364;2023-03-18T03:58:35;19712.22;;;-141.84;53.67
15260;BME280;34462;51.368;12.364;2023-03-18T04:01:04;19708.16;;;-141.84;53.69
15260;BME280;34462;51.368;12.364;2023-03-18T04:03:32;19740.69;;;-141.84;53.16
15260;BME280;34462;51.368;12.364;2023-03-18T04:06:02;19714.25;;;-141.84;53.72
15260;BME280;34462;51.368;12.364;2023-03-18T04:08:30;19689.88;;;-141.84;54.05
15260;BME280;34462;51.368;12.364;2023-03-18T04:10:58;19752.88;;;-141.84;53.70
15260;BME280;34462;51.368;12.364;2023-03-18T04:13:26;19785.38;;;-141.84;52.49
15260;BME280;34462;51.368;12.364;2023-03-18T04:15:54;19761.00;;;-141.84;52.66
15260;BME280;34462;51.368;12.364;2023-03-18T04:18:23;19734.56;;;-141.84;53.36
15260;BME280;34462;51.368;12.364;2023-03-18T04:20:51;19736.59;;;-141.84;53.84
15260;BME280;34462;51.368;12.364;2023-03-18T04:23:21;19779.28;;;-141.84;53.02
15260;BME280;34462;51.368;12.364;2023-03-18T04:25:49;19708.16;;;-141.84;53.72
15260;BME280;34462;51.368;12.364;2023-03-18T04:28:17;19777.25;;;-141.84;53.49
15260;BME280;34462;51.368;12.364;2023-03-18T04:30:47;19718.31;;;-141.84;54.06
15260;BME280;34462;51.368;12.364;2023-03-18T04:33:16;19704.09;;;-141.84;53.61
15260;BME280;34462;51.368;12.364;2023-03-18T04:35:47;19726.44;;;-141.84;53.98
15260;BME280;34462;51.368;12.364;2023-03-18T04:38:15;19736.59;;;-141.84;54.12
15260;BME280;34462;51.368;12.364;2023-03-18T04:40:45;19761.00;;;-141.84;53.40
15260;BME280;34462;51.368;12.364;2023-03-18T04:43:13;19777.25;;;-141.84;53.29
15260;BME280;34462;51.368;12.364;2023-03-18T04:45:41;19758.97;;;-141.84;52.77
15260;BME280;34462;51.368;12.364;2023-03-18T04:48:10;19744.75;;;-141.84;53.67
15260;BME280;34462;51.368;12.364;2023-03-18T04:50:39;19756.94;;;-141.84;53.84
15260;BME280;34462;51.368;12.364;2023-03-18T04:53:07;19750.84;;;-141.84;53.89
15260;BME280;34462;51.368;12.364;2023-03-18T04:55:35;19777.25;;;-141.84;53.12
15260;BME280;34462;51.368;12.364;2023-03-18T04:58:05;19761.00;;;-141.84;53.78
15260;BME280;34462;51.368;12.364;2023-03-18T05:00:33;19803.69;;;-141.84;52.96
15260;BME280;34462;51.368;12.364;2023-03-18T05:03:02;19813.84;;;-141.84;53.13
15260;BME280;34462;51.368;12.364;2023-03-18T05:05:30;19736.59;;;-141.84;53.52
15260;BME280;34462;51.368;12.364;2023-03-18T05:07:58;19722.38;;;-141.84;54.11
15260;BME280;34462;51.368;12.364;2023-03-18T05:10:27;19801.66;;;-141.84;54.19
15260;BME280;34462;51.368;12.364;2023-03-18T05:12:55;19742.72;;;-141.84;53.89
15260;BME280;34462;51.368;12.364;2023-03-18T05:15:25;19738.66;;;-141.84;53.65
15260;BME280;34462;51.368;12.364;2023-03-18T05:17:53;19789.44;;;-141.84;53.56
15260;BME280;34462;51.368;12.364;2023-03-18T05:20:21;19732.53;;;-141.84;53.73
15260;BME280;34462;51.368;12.364;2023-03-18T05:22:49;19761.00;;;-141.84;53.31
15260;BME280;34462;51.368;12.364;2023-03-18T05:25:20;19732.53;;;-141.84;53.60
15260;BME280;34462;51.368;12.364;2023-03-18T05:27:48;19765.06;;;-141.84;53.71
15260;BME280;34462;51.368;12.364;2023-03-18T05:30:16;19756.94;;;-141.84;54.68
15260;BME280;34462;51.368;12.364;2023-03-18T05:32:46;19726.44;;;-141.84;54.20
15260;BME280;34462;51.368;12.364;2023-03-18T05:35:15;19763.03;;;-141.84;54.35
15260;BME280;34462;51.368;12.364;2023-03-18T05:37:43;19754.91;;;-141.84;54.70
15260;BME280;34462;51.368;12.364;2023-03-18T05:40:13;19740.69;;;-141.84;54.47
15260;BME280;34462;51.368;12.364;2023-03-18T05:42:41;19758.97;;;-141.84;54.32
15260;BME280;34462;51.368;12.364;2023-03-18T05:45:21;19726.44;;;-141.84;54.85
15260;BME280;34462;51.368;12.364;2023-03-18T05:47:51;19724.41;;;-141.84;54.95
15260;BME280;34462;51.368;12.364;2023-03-18T05:50:28;19732.53;;;-141.84;55.21
15260;BME280;34462;51.368;12.364;2023-03-18T05:52:57;19726.44;;;-141.84;55.19
15260;BME280;34462;51.368;12.364;2023-03-18T05:55:27;19720.34;;;-141.84;55.36
15260;BME280;34462;51.368;12.364;2023-03-18T05:57:56;19728.47;;;-141.84;55.32
15260;BME280;34462;51.368;12.364;2023-03-18T06:00:25;19767.09;;;-141.84;55.32
15260;BME280;34462;51.368;12.364;2023-03-18T06:02:57;19730.50;;;-141.84;55.34
15260;BME280;34462;51.368;12.364;2023-03-18T06:05:26;19746.78;;;-141.84;55.43
15260;BME280;34462;51.368;12.364;2023-03-18T06:07:56;19746.78;;;-141.84;55.23
15260;BME280;34462;51.368;12.364;2023-03-18T06:10:25;19761.00;;;-141.84;55.33
15260;BME280;34462;51.368;12.364;2023-03-18T06:12:54;19728.47;;;-141.84;55.66
15260;BME280;34462;51.368;12.364;2023-03-18T06:15:23;19732.53;;;-141.84;55.75
15260;BME280;34462;51.368;12.364;2023-03-18T06:17:51;19797.59;;;-141.84;54.25
15260;BME280;34462;51.368;12.364;2023-03-18T06:20:21;19756.94;;;-141.84;55.17
15260;BME280;34462;51.368;12.364;2023-03-18T06:22:49;19783.34;;;-141.84;55.00
15260;BME280;34462;51.368;12.364;2023-03-18T06:25:19;19801.66;;;-141.84;54.11
15260;BME280;34462;51.368;12.364;2023-03-18T06:27:48;19807.75;;;-141.84;54.19
15260;BME280;34462;51.368;12.364;2023-03-18T06:30:18;19858.56;;;-141.84;53.41
15260;BME280;34462;51.368;12.364;2023-03-18T06:32:46;19854.50;;;-141.84;53.80
15260;BME280;34462;51.368;12.364;2023-03-18T06:35:14;19803.69;;;-141.84;53.97
15260;BME280;34462;51.368;12.364;2023-03-18T06:37:44;19791.47;;;-141.84;54.11
15260;BME280;34462;51.368;12.364;2023-03-18T06:40:13;19817.91;;;-141.84;54.06
15260;BME280;34462;51.368;12.364;2023-03-18T06:42:41;19803.69;;;-141.84;53.96
15260;BME280;34462;51.368;12.364;2023-03-18T06:45:11;19815.88;;;-141.84;54.22
15260;BME280;34462;51.368;12.364;2023-03-18T06:47:39;19813.84;;;-141.84;53.44
15260;BME280;34462;51.368;12.364;2023-03-18T06:50:10;19781.31;;;-141.84;54.10
15260;BME280;34462;51.368;12.364;2023-03-18T06:52:39;19826.03;;;-141.84;53.77
15260;BME280;34462;51.368;12.364;2023-03-18T06:55:10;19838.22;;;-141.84;53.53
15260;BME280;34462;51.368;12.364;2023-03-18T06:57:38;19860.59;;;-141.84;53.33
15260;BME280;34462;51.368;12.364;2023-03-18T07:00:10;19895.13;;;-141.84;52.69
15260;BME280;34462;51.368;12.364;2023-03-18T07:02:38;19905.28;;;-141.84;52.80
15260;BME280;34462;51.368;12.364;2023-03-18T07:05:08;19903.25;;;-141.84;51.95
15260;BME280;34462;51.368;12.364;2023-03-18T07:07:36;19931.72;;;-141.84;52.52
15260;BME280;34462;51.368;12.364;2023-03-18T07:10:06;19893.09;;;-141.84;52.67
15260;BME280;34462;51.368;12.364;2023-03-18T07:12:36;19935.78;;;-141.84;51.88
15260;BME280;34462;51.368;12.364;2023-03-18T07:15:07;19915.47;;;-141.84;52.40
15260;BME280;34462;51.368;12.364;2023-03-18T07:17:37;19917.50;;;-141.84;52.78
15260;BME280;34462;51.368;12.364;2023-03-18T07:20:06;19911.41;;;-141.84;52.40
15260;BME280;34462;51.368;12.364;2023-03-18T07:22:35;19950.00;;;-141.84;52.06
15260;BME280;34462;51.368;12.364;2023-03-18T07:25:04;19919.53;;;-141.84;52.03
15260;BME280;34462;51.368;12.364;2023-03-18T07:27:33;19911.41;;;-141.84;51.88
15260;BME280;34462;51.368;12.364;2023-03-18T07:30:04;19935.78;;;-141.84;51.19
15260;BME280;34462;51.368;12.364;2023-03-18T07:32:35;19974.41;;;-141.84;51.27
15260;BME280;34462;51.368;12.364;2023-03-18T07:35:07;19992.69;;;-141.84;50.75
15260;BME280;34462;51.368;12.364;2023-03-18T07:37:36;19998.78;;;-141.84;50.47
15260;BME280;34462;51.368;12.364;2023-03-18T07:40:07;20041.47;;;-141.84;49.90
15260;BME280;34462;51.368;12.364;2023-03-18T07:42:36;20049.59;;;-141.84;49.69
15260;BME280;34462;51.368;12.364;2023-03-18T07:45:08;20053.66;;;-141.84;50.05
15260;BME280;34462;51.368;12.364;2023-03-18T07:47:36;20053.66;;;-141.84;49.73
15260;BME280;34462;51.368;12.364;2023-03-18T07:50:06;20063.81;;;-141.84;49.93
15260;BME280;34462;51.368;12.364;2023-03-18T07:52:34;20110.56;;;-141.84;49.07
15260;BME280;34462;51.368;12.364;2023-03-18T07:55:04;20126.84;;;-141.84;49.20
15260;BME280;34462;51.368;12.364;2023-03-18T07:57:32;20086.19;;;-141.84;48.54
15260;BME280;34462;51.368;12.364;2023-03-18T08:00:01;20094.31;;;-141.84;48.71
15260;BME280;34462;51.368;12.364;2023-03-18T08:02:32;20088.22;;;-141.84;49.15
15260;BME280;34462;51.368;12.364;2023-03-18T08:05:02;20082.13;;;-141.84;49.13
15260;BME280;34462;51.368;12.364;2023-03-18T08:07:33;20069.94;;;-141.84;49.84
15260;BME280;34462;51.368;12.364;2023-03-18T08:10:02;20045.53;;;-141.84;49.72
15260;BME280;34462;51.368;12.364;2023-03-18T08:12:30;20037.41;;;-141.84;50.63
15260;BME280;34462;51.368;12.364;2023-03-18T08:15:15;20023.19;;;-141.84;51.18
15260;BME280;34462;51.368;12.364;2023-03-18T08:17:45;19994.72;;;-141.84;51.45
15260;BME280;34462;51.368;12.364;2023-03-18T08:20:13;20010.97;;;-141.84;51.22
15260;BME280;34462;51.368;12.364;2023-03-18T08:22:41;19986.59;;;-141.84;52.04
15260;BME280;34462;51.368;12.364;2023-03-18T08:25:13;19984.56;;;-141.84;51.70
15260;BME280;34462;51.368;12.364;2023-03-18T08:27:41;19988.63;;;-141.84;52.11
15260;BME280;34462;51.368;12.364;2023-03-18T08:30:11;20002.84;;;-141.84;51.24
15260;BME280;34462;51.368;12.364;2023-03-18T08:32:41;20037.41;;;-141.84;50.71
15260;BME280;34462;51.368;12.364;2023-03-18T08:35:11;20061.78;;;-141.84;50.81
15260;BME280;34462;51.368;12.364;2023-03-18T08:37:40;20008.94;;;-141.84;51.45
15260;BME280;34462;51.368;12.364;2023-03-18T08:40:10;20015.03;;;-141.84;51.69
15260;BME280;34462;51.368;12.364;2023-03-18T08:42:39;19994.72;;;-141.84;51.84
15260;BME280;34462;51.368;12.364;2023-03-18T08:45:08;20004.88;;;-141.84;51.59
15260;BME280;34462;51.368;12.364;2023-03-18T08:47:37;20051.63;;;-141.84;51.24
15260;BME280;34462;51.368;12.364;2023-03-18T08:50:06;20015.03;;;-141.84;51.11
15260;BME280;34462;51.368;12.364;2023-03-18T08:52:36;20049.59;;;-141.84;50.91
15260;BME280;34462;51.368;12.364;2023-03-18T08:55:07;20082.13;;;-141.84;50.50
15260;BME280;34462;51.368;12.364;2023-03-18T08:57:36;20082.13;;;-141.84;50.52
15260;BME280;34462;51.368;12.364;2023-03-18T09:00:06;20078.06;;;-141.84;50.83
15260;BME280;34462;51.368;12.364;2023-03-18T09:02:35;20069.94;;;-141.84;51.06
15260;BME280;34462;51.368;12.364;2023-03-18T09:05:04;20080.09;;;-141.84;50.26
15260;BME280;34462;51.368;12.364;2023-03-18T09:07:32;20128.88;;;-141.84;50.17
15260;BME280;34462;51.368;12.364;2023-03-18T09:10:03;20181.72;;;-141.84;49.48
15260;BME280;34462;51.368;12.364;2023-03-18T09:12:32;20200.00;;;-141.84;49.27
15260;BME280;34462;51.368;12.364;2023-03-18T09:15:00;20240.66;;;-141.84;49.05
15260;BME280;34462;51.368;12.364;2023-03-18T09:17:29;20232.53;;;-141.84;48.50
15260;BME280;34462;51.368;12.364;2023-03-18T09:20:17;20305.69;;;-141.84;46.69
15260;BME280;34462;51.368;12.364;2023-03-18T09:22:46;20340.25;;;-141.84;46.87
15260;BME280;34462;51.368;12.364;2023-03-18T09:25:18;20307.72;;;-141.84;46.94
15260;BME280;34462;51.368;12.364;2023-03-18T09:27:46;20368.72;;;-141.84;46.37
15260;BME280;34462;51.368;12.364;2023-03-18T09:30:15;20360.59;;;-141.84;46.55
15260;BME280;34462;51.368;12.364;2023-03-18T09:32:43;20358.56;;;-141.84;46.65
15260;BME280;34462;51.368;12.364;2023-03-18T09:35:12;20376.84;;;-141.84;46.83
15260;BME280;34462;51.368;12.364;2023-03-18T09:37:40;20407.34;;;-141.84;46.50
15260;BME280;34462;51.368;12.364;2023-03-18T09:40:20;20441.88;;;-141.84;45.45
15260;BME280;34462;51.368;12.364;2023-03-18T09:43:04;20480.50;;;-141.84;45.01
15260;BME280;34462;51.368;12.364;2023-03-18T09:45:49;20445.94;;;-141.84;45.39
15260;BME280;34462;51.368;12.364;2023-03-18T09:49:12;20484.56;;;-141.84;45.67
15260;BME280;34462;51.368;12.364;2023-03-18T09:51:56;20582.16;;;-141.84;44.64
15260;BME280;34462;51.368;12.364;2023-03-18T09:54:35;20610.59;;;-141.84;44.11
15260;BME280;34462;51.368;12.364;2023-03-18T09:57:14;20647.19;;;-141.84;43.51
15260;BME280;34462;51.368;12.364;2023-03-18T09:59:50;20793.56;;;-141.84;42.19
15260;BME280;34462;51.368;12.364;2023-03-18T10:02:28;20756.97;;;-141.84;42.56
15260;BME280;34462;51.368;12.364;2023-03-18T10:05:03;20773.22;;;-141.84;42.61
15260;BME280;34462;51.368;12.364;2023-03-18T10:07:38;20702.09;;;-141.84;42.85
15260;BME280;34462;51.368;12.364;2023-03-18T10:10:12;20693.94;;;-141.84;43.28
15260;BME280;34462;51.368;12.364;2023-03-18T10:12:51;20807.78;;;-141.84;42.49
15260;BME280;34462;51.368;12.364;2023-03-18T10:15:27;20754.94;;;-141.84;42.48
15260;BME280;34462;51.368;12.364;2023-03-18T10:18:07;20761.03;;;-141.84;42.43
15260;BME280;34462;51.368;12.364;2023-03-18T10:20:51;20803.72;;;-141.84;42.37
15260;BME280;34462;51.368;12.364;2023-03-18T10:23:35;20891.13;;;-141.84;41.80
15260;BME280;34462;51.368;12.364;2023-03-18T10:26:12;20891.13;;;-141.84;41.46
15260;BME280;34462;51.368;12.364;2023-03-18T10:29:02;20913.50;;;-141.84;41.61
15260;BME280;34462;51.368;12.364;2023-03-18T10:31:46;20891.13;;;-141.84;41.70
15260;BME280;34462;51.368;12.364;2023-03-18T10:34:21;20862.69;;;-141.84;42.72
15260;BME280;34462;51.368;12.364;2023-03-18T10:36:54;20907.41;;;-141.84;42.20
15260;BME280;34462;51.368;12.364;2023-03-18T10:39:27;20925.69;;;-141.84;42.06
15260;BME280;34462;51.368;12.364;2023-03-18T10:42:19;20883.00;;;-141.84;42.12
15260;BME280;34462;51.368;12.364;2023-03-18T10:44:49;20956.19;;;-141.84;41.89
15260;BME280;34462;51.368;12.364;2023-03-18T10:47:23;20923.66;;;-141.84;41.70
15260;BME280;34462;51.368;12.364;2023-03-18T10:50:02;21004.97;;;-141.84;41.17
15260;BME280;34462;51.368;12.364;2023-03-18T10:52:37;20990.75;;;-141.84;41.09
15260;BME280;34462;51.368;12.364;2023-03-18T10:55:15;21007.00;;;-141.84;41.48
15260;BME280;34462;51.368;12.364;2023-03-18T10:57:44;20990.75;;;-141.84;41.25
15260;BME280;34462;51.368;12.364;2023-03-18T11:00:26;20970.41;;;-141.84;41.71
15260;BME280;34462;51.368;12.364;2023-03-18T11:02:55;21055.81;;;-141.84;40.93
15260;BME280;34462;51.368;12.364;2023-03-18T11:05:27;21004.97;;;-141.84;41.55
15260;BME280;34462;51.368;12.364;2023-03-18T11:07:59;20994.81;;;-141.84;41.70
15260;BME280;34462;51.368;12.364;2023-03-18T11:10:32;20980.59;;;-141.84;42.22
15260;BME280;34462;51.368;12.364;2023-03-18T11:13:02;20954.16;;;-141.84;42.25
15260;BME280;34462;51.368;12.364;2023-03-18T11:15:37;20880.97;;;-141.84;43.29
15260;BME280;34462;51.368;12.364;2023-03-18T11:18:15;20885.03;;;-141.84;43.63
15260;BME280;34462;51.368;12.364;2023-03-18T11:20:46;20899.28;;;-141.84;43.82
15260;BME280;34462;51.368;12.364;2023-03-18T11:23:31;20885.03;;;-141.84;43.62
15260;BME280;34462;51.368;12.364;2023-03-18T11:26:20;20844.38;;;-141.84;43.83
15260;BME280;34462;51.368;12.364;2023-03-18T11:28:53;20872.84;;;-141.84;44.30
15260;BME280;34462;51.368;12.364;2023-03-18T11:31:23;20891.13;;;-141.84;44.35
15260;BME280;34462;51.368;12.364;2023-03-18T11:33:57;20897.25;;;-141.84;44.40
15260;BME280;34462;51.368;12.364;2023-03-18T11:36:27;20854.53;;;-141.84;44.52
15260;BME280;34462;51.368;12.364;2023-03-18T11:39:03;20885.03;;;-141.84;44.86
15260;BME280;34462;51.368;12.364;2023-03-18T11:41:31;20915.53;;;-141.84;45.17
15260;BME280;34462;51.368;12.364;2023-03-18T11:44:02;20913.50;;;-141.84;45.37
15260;BME280;34462;51.368;12.364;2023-03-18T11:46:36;20933.81;;;-141.84;45.15
15260;BME280;34462;51.368;12.364;2023-03-18T11:49:12;20939.94;;;-141.84;45.12
15260;BME280;34462;51.368;12.364;2023-03-18T11:51:53;20972.47;;;-141.84;44.04
15260;BME280;34462;51.368;12.364;2023-03-18T11:54:59;20988.72;;;-141.84;44.31
15260;BME280;34462;51.368;12.364;2023-03-18T11:57:44;21025.31;;;-141.84;44.09
15260;BME280;34462;51.368;12.364;2023-03-18T12:00:28;20992.78;;;-141.84;44.76
15260;BME280;34462;51.368;12.364;2023-03-18T12:06:21;20986.69;;;-141.84;44.81
15260;BME280;34462;51.368;12.364;2023-03-18T12:09:02;20966.34;;;-141.84;45.29
15260;BME280;34462;51.368;12.364;2023-03-18T12:11:57;20950.09;;;-141.84;45.67
15260;BME280;34462;51.368;12.364;2023-03-18T12:14:33;20903.34;;;-141.84;46.01
15260;BME280;34462;51.368;12.364;2023-03-18T12:17:21;20909.44;;;-141.84;46.41
15260;BME280;34462;51.368;12.364;2023-03-18T12:20:34;20948.06;;;-141.84;45.76
15260;BME280;34462;51.368;12.364;2023-03-18T12:26:06;20937.91;;;-141.84;45.46
15260;BME280;34462;51.368;12.364;2023-03-18T12:28:47;20905.38;;;-141.84;45.76
15260;BME280;34462;51.368;12.364;2023-03-18T12:31:46;20982.63;;;-141.84;45.61
15260;BME280;34462;51.368;12.364;2023-03-18T12:34:37;21011.09;;;-141.84;45.47
15260;BME280;34462;51.368;12.364;2023-03-18T12:37:28;21029.38;;;-141.84;45.24
15260;BME280;34462;51.368;12.364;2023-03-18T12:40:29;21057.84;;;-141.84;44.79
15260;BME280;34462;51.368;12.364;2023-03-18T12:43:40;21047.69;;;-141.84;45.54
15260;BME280;34462;51.368;12.364;2023-03-18T12:46:24;21017.19;;;-141.84;45.38
15260;BME280;34462;51.368;12.364;2023-03-18T12:49:02;21063.94;;;-141.84;45.62
15260;BME280;34462;51.368;12.364;2023-03-18T12:51:43;21078.16;;;-141.84;45.64
15260;BME280;34462;51.368;12.364;2023-03-18T12:54:21;20990.75;;;-141.84;45.88
15260;BME280;34462;51.368;12.364;2023-03-18T12:56:58;20992.78;;;-141.84;45.89
15260;BME280;34462;51.368;12.364;2023-03-18T12:59:35;21037.50;;;-141.84;45.75
15260;BME280;34462;51.368;12.364;2023-03-18T13:02:36;21017.19;;;-141.84;45.71
15260;BME280;34462;51.368;12.364;2023-03-18T13:05:20;20994.81;;;-141.84;45.36